Time;durP1;ratioP1;P1;durP2;ratioP2;P2;SDS_P1;SDS_P2;PMS_P1;PMS_P2;Temp;Humidity;BMP_temperature;BMP_pressure;BME280_temperature;BME280_humidity;BME280_pressure;Samples;Min_cycle;Max_cycle;Signal;HPM_P1;HPM_P2
2023/11/20 00:00:50;;;;;;;3.50;1.00;;;11.70;99.90;;;;;;5136024;27;20035;-47
2023/11/20 00:03:15;;;;;;;1.30;0.90;;;11.90;99.90;;;;;;5132923;27;20043;-44
2023/11/20 00:05:41;;;;;;;5.38;1.10;;;11.80;99.90;;;;;;5136007;27;20104;-43
2023/11/20 00:08:07;;;;;;;3.58;0.98;;;11.80;99.90;;;;;;5135694;27;20045;-44
2023/11/20 00:10:34;;;;;;;7.53;2.30;;;11.80;99.90;;;;;;5135804;27;20039;-47
2023/11/20 00:12:59;;;;;;;3.50;1.40;;;12.00;99.90;;;;;;5135812;27;20140;-45
2023/11/20 00:15:25;;;;;;;6.03;1.50;;;11.80;99.90;;;;;;5135928;27;20039;-44
2023/11/20 00:17:51;;;;;;;7.30;1.52;;;11.80;99.90;;;;;;5135347;27;20217;-43
2023/11/20 00:20:17;;;;;;;5.13;1.35;;;11.90;99.90;;;;;;5135676;27;20039;-45
2023/11/20 00:22:46;;;;;;;4.15;0.98;;;12.00;99.90;;;;;;5135701;27;20035;-46
2023/11/20 00:25:12;;;;;;;1.45;0.57;;;12.00;99.90;;;;;;5135204;27;20034;-44
2023/11/20 00:27:37;;;;;;;1.02;0.70;;;12.00;99.90;;;;;;5131588;27;20385;-45
2023/11/20 00:30:03;;;;;;;0.52;0.40;;;12.00;99.90;;;;;;5116490;28;20126;-45
2023/11/20 00:32:31;;;;;;;1.55;0.40;;;11.80;99.90;;;;;;5134897;27;20465;-44
2023/11/20 00:34:56;;;;;;;1.45;0.63;;;11.90;99.90;;;;;;5131519;27;20073;-45
2023/11/20 00:37:22;;;;;;;5.72;0.50;;;12.00;99.90;;;;;;5116995;27;20035;-44
2023/11/20 00:39:48;;;;;;;1.52;0.60;;;12.00;99.90;;;;;;5135295;27;20143;-43
2023/11/20 00:42:13;;;;;;;1.50;0.98;;;12.00;99.90;;;;;;5135608;27;20089;-43
2023/11/20 00:44:39;;;;;;;0.85;0.70;;;12.00;99.90;;;;;;5135110;27;20126;-47
2023/11/20 00:47:05;;;;;;;1.50;0.70;;;12.00;99.90;;;;;;5131814;27;20051;-44
2023/11/20 00:49:31;;;;;;;2.47;0.95;;;11.90;99.90;;;;;;5123594;27;20066;-46
2023/11/20 00:51:56;;;;;;;1.10;0.90;;;11.80;99.90;;;;;;5114463;27;20042;-44
2023/11/20 00:54:22;;;;;;;4.88;1.50;;;11.90;99.90;;;;;;5109904;28;20047;-43
2023/11/20 00:56:49;;;;;;;3.53;1.55;;;11.90;99.90;;;;;;5114292;28;20072;-45
2023/11/20 00:59:14;;;;;;;4.55;1.50;;;11.90;99.90;;;;;;5114154;28;20442;-43
2023/11/20 01:01:40;;;;;;;2.58;1.30;;;11.90;99.90;;;;;;5099839;28;20031;-47
2023/11/20 01:04:06;;;;;;;8.05;1.75;;;11.90;99.90;;;;;;5100005;27;20090;-43
2023/11/20 01:06:38;;;;;;;6.05;1.73;;;12.10;99.90;;;;;;5096612;28;20078;-44
2023/11/20 01:09:06;;;;;;;5.43;1.40;;;11.90;99.90;;;;;;5099977;28;20038;-44
2023/11/20 01:11:32;;;;;;;4.00;1.00;;;12.10;99.90;;;;;;5108435;28;20436;-46
2023/11/20 01:14:01;;;;;;;5.28;1.55;;;11.90;99.90;;;;;;5105362;28;20499;-43
2023/11/20 01:16:27;;;;;;;;;;;11.90;99.90;;;;;;5114069;28;20036;-45
2023/11/20 01:18:53;;;;;;;3.25;0.90;;;11.90;99.90;;;;;;5095977;28;19968;-45
2023/11/20 01:21:20;;;;;;;2.05;1.30;;;11.90;99.90;;;;;;5081268;28;20043;-43
2023/11/20 01:23:46;;;;;;;3.00;1.20;;;11.90;99.90;;;;;;5095421;28;20101;-45
2023/11/20 01:26:12;;;;;;;1.58;0.98;;;12.00;99.90;;;;;;5113705;28;20039;-44
2023/11/20 01:28:38;;;;;;;2.42;1.00;;;12.10;99.90;;;;;;5113464;28;20521;-45
2023/11/20 01:31:04;;;;;;;3.13;1.10;;;11.90;99.90;;;;;;5113846;28;20027;-48
2023/11/20 01:33:30;;;;;;;1.67;1.20;;;11.90;99.90;;;;;;5113559;28;20024;-47
2023/11/20 01:35:56;;;;;;;1.33;1.00;;;12.10;99.90;;;;;;5113511;28;20492;-43
2023/11/20 01:38:22;;;;;;;1.95;1.30;;;12.10;99.90;;;;;;5098943;28;20047;-46
2023/11/20 01:40:54;;;;;;;0.85;0.85;;;12.10;99.90;;;;;;5113649;28;20046;-42
2023/11/20 01:43:20;;;;;;;4.20;1.20;;;11.90;99.90;;;;;;5094935;28;20119;-42
2023/11/20 01:45:47;;;;;;;4.03;1.10;;;11.90;99.90;;;;;;5113192;28;20197;-46
2023/11/20 01:48:14;;;;;;;3.60;1.08;;;12.10;99.90;;;;;;5113499;28;20051;-46
2023/11/20 01:50:40;;;;;;;5.97;1.30;;;11.90;99.90;;;;;;5094858;28;20043;-43
2023/11/20 01:53:09;;;;;;;3.42;1.10;;;12.10;99.90;;;;;;5113457;28;20032;-47
2023/11/20 01:55:35;;;;;;;5.90;1.15;;;12.10;99.90;;;;;;5113146;28;20042;-43
2023/11/20 01:58:00;;;;;;;5.18;1.17;;;12.00;99.90;;;;;;5112979;28;20036;-43
2023/11/20 02:00:26;;;;;;;3.15;0.80;;;12.00;99.90;;;;;;5112927;28;20123;-44
2023/11/20 02:02:52;;;;;;;3.17;0.85;;;12.10;99.90;;;;;;5113136;28;20035;-43
2023/11/20 02:05:19;;;;;;;1.70;0.90;;;12.10;99.90;;;;;;5113064;28;20097;-43
2023/11/20 02:07:45;;;;;;;2.15;0.60;;;12.10;99.90;;;;;;5113029;28;20034;-45
2023/11/20 02:10:11;;;;;;;0.82;0.75;;;12.10;99.90;;;;;;5113120;28;20040;-43
2023/11/20 02:12:37;;;;;;;2.10;0.70;;;12.00;99.90;;;;;;5098415;28;20047;-45
2023/11/20 02:15:04;;;;;;;5.50;0.90;;;12.10;99.90;;;;;;5112784;28;20035;-43
2023/11/20 02:17:32;;;;;;;1.27;0.70;;;12.10;99.90;;;;;;5112739;28;20043;-43
2023/11/20 02:19:58;;;;;;;1.67;0.52;;;12.00;99.90;;;;;;5112909;28;20044;-44
2023/11/20 02:22:24;;;;;;;0.98;0.70;;;12.00;99.90;;;;;;5112794;28;20046;-44
2023/11/20 02:24:50;;;;;;;2.45;0.63;;;11.90;99.90;;;;;;5112549;28;20039;-44
2023/11/20 02:27:50;;;;;;;0.65;0.60;;;11.90;99.90;;;;;;5112708;28;20043;-46
2023/11/20 02:30:16;;;;;;;1.92;0.80;;;11.90;99.90;;;;;;5100121;28;20071;-45
2023/11/20 02:32:43;;;;;;;0.55;0.50;;;12.10;99.90;;;;;;5112495;28;20506;-43
2023/11/20 02:35:16;;;;;;;0.65;0.65;;;12.10;99.90;;;;;;5094408;28;20043;-43
2023/11/20 02:37:42;;;;;;;2.50;0.80;;;12.20;99.90;;;;;;5112589;28;20039;-45
2023/11/20 02:40:10;;;;;;;1.83;1.00;;;12.10;99.90;;;;;;5112418;28;20047;-44
2023/11/20 02:42:36;;;;;;;1.50;0.82;;;12.10;99.90;;;;;;5112836;28;20043;-47
2023/11/20 02:45:02;;;;;;;1.02;0.90;;;12.10;99.90;;;;;;5094113;28;20043;-45
2023/11/20 02:47:28;;;;;;;0.70;0.68;;;12.10;99.90;;;;;;5112538;28;20119;-44
2023/11/20 02:49:53;;;;;;;1.35;0.70;;;12.10;99.90;;;;;;5112406;28;20122;-43
2023/11/20 02:52:20;;;;;;;2.30;1.20;;;12.00;99.90;;;;;;5112292;28;20392;-48
2023/11/20 02:54:46;;;;;;;1.80;1.17;;;12.10;99.90;;;;;;5130859;27;20035;-50
2023/11/20 02:57:12;;;;;;;1.10;1.00;;;12.00;99.90;;;;;;5132736;27;20428;-46
2023/11/20 02:59:38;;;;;;;1.80;0.95;;;12.10;99.90;;;;;;5132790;27;20042;-44
2023/11/20 03:02:04;;;;;;;2.17;1.00;;;12.00;99.90;;;;;;5114377;27;20043;-44
2023/11/20 03:04:29;;;;;;;1.63;1.00;;;12.00;99.90;;;;;;5132556;27;20039;-48
2023/11/20 03:06:55;;;;;;;2.65;1.20;;;12.00;99.90;;;;;;5132778;27;20122;-43
2023/11/20 03:09:22;;;;;;;2.17;1.20;;;12.00;99.90;;;;;;5132362;28;20496;-45
2023/11/20 03:11:48;;;;;;;3.58;1.50;;;12.10;99.90;;;;;;5112696;28;20040;-45
2023/11/20 03:14:13;;;;;;;3.70;1.20;;;12.10;99.90;;;;;;5107577;28;20080;-43
2023/11/20 03:16:40;;;;;;;1.77;0.93;;;12.10;99.90;;;;;;5112057;28;20070;-44
2023/11/20 03:19:05;;;;;;;1.55;0.77;;;11.90;99.90;;;;;;5112173;28;20043;-43
2023/11/20 03:21:33;;;;;;;2.25;0.90;;;12.10;99.90;;;;;;5120509;28;20039;-47
2023/11/20 03:23:59;;;;;;;1.10;0.80;;;12.10;99.90;;;;;;5132367;28;20519;-47
2023/11/20 03:26:26;;;;;;;2.35;0.73;;;12.00;99.90;;;;;;5132404;28;20035;-45
2023/11/20 03:28:52;;;;;;;3.60;0.98;;;11.90;99.90;;;;;;5132068;28;20047;-44
2023/11/20 03:31:19;;;;;;;7.05;1.83;;;12.00;99.90;;;;;;5132534;28;20120;-43
2023/11/20 03:33:48;;;;;;;2.80;1.30;;;12.20;99.90;;;;;;5114114;28;20035;-44
2023/11/20 03:36:14;;;;;;;1.90;1.10;;;12.10;99.90;;;;;;5132355;28;20046;-44
2023/11/20 03:38:41;;;;;;;1.48;0.80;;;12.10;99.90;;;;;;5114094;28;20043;-45
2023/11/20 03:41:07;;;;;;;2.80;1.33;;;12.00;99.90;;;;;;5132122;28;20035;-46
2023/11/20 03:43:34;;;;;;;1.30;1.10;;;12.20;99.90;;;;;;5132524;28;20041;-44
2023/11/20 03:46:00;;;;;;;3.33;1.35;;;12.20;99.90;;;;;;5132168;28;20056;-46
2023/11/20 03:48:26;;;;;;;4.43;1.75;;;12.10;99.90;;;;;;5114272;28;20047;-43
2023/11/20 03:50:52;;;;;;;3.42;1.35;;;12.10;99.90;;;;;;5132116;28;20045;-43
2023/11/20 03:53:18;;;;;;;3.17;1.40;;;12.00;99.90;;;;;;5132076;28;20033;-49
2023/11/20 03:55:43;;;;;;;2.58;1.40;;;12.20;99.90;;;;;;5132462;28;20496;-44
2023/11/20 03:58:09;;;;;;;3.35;1.10;;;12.20;99.90;;;;;;5132064;28;20370;-43
2023/11/20 04:00:35;;;;;;;7.22;1.70;;;12.00;99.90;;;;;;5132160;28;20090;-42
2023/11/20 04:03:01;;;;;;;3.63;1.60;;;12.00;99.90;;;;;;5131848;28;20031;-44
2023/11/20 04:05:27;;;;;;;3.72;1.40;;;12.10;99.90;;;;;;5133719;27;20374;-43
2023/11/20 04:07:52;;;;;;;3.63;1.20;;;12.10;99.90;;;;;;5117466;27;20043;-46
2023/11/20 04:10:18;;;;;;;4.43;1.65;;;12.10;99.90;;;;;;5136045;27;20047;-43
2023/11/20 04:12:45;;;;;;;2.33;1.52;;;12.20;99.90;;;;;;5103216;27;20092;-45
2023/11/20 04:15:11;;;;;;;4.63;1.90;;;12.00;99.90;;;;;;5115189;28;20099;-44
2023/11/20 04:17:37;;;;;;;6.82;2.22;;;12.00;99.90;;;;;;5123756;27;20043;-49
2023/11/20 04:20:05;;;;;;;8.88;2.50;;;11.90;99.90;;;;;;5135551;27;20469;-45
2023/11/20 04:22:31;;;;;;;7.50;2.28;;;12.00;99.90;;;;;;5135506;27;20092;-44
2023/11/20 04:24:57;;;;;;;9.25;3.75;;;12.20;99.90;;;;;;5135739;27;20039;-43
2023/11/20 04:27:23;;;;;;;13.35;3.63;;;12.10;99.90;;;;;;5135292;27;20035;-43
2023/11/20 04:29:49;;;;;;;10.45;3.65;;;12.00;99.90;;;;;;5135535;27;20050;-45
2023/11/20 04:32:14;;;;;;;11.93;3.88;;;12.00;99.90;;;;;;5135396;27;20042;-44
2023/11/20 04:34:40;;;;;;;14.75;3.83;;;12.20;99.90;;;;;;5117207;27;20076;-44
2023/11/20 04:37:06;;;;;;;12.65;3.88;;;12.20;99.90;;;;;;5134709;27;20095;-45
2023/11/20 04:39:31;;;;;;;14.93;4.32;;;12.10;99.90;;;;;;5122111;27;20118;-44
2023/11/20 04:41:58;;;;;;;10.90;3.50;;;12.10;99.90;;;;;;5135440;27;20035;-44
2023/11/20 04:44:24;;;;;;;10.38;2.83;;;12.00;99.90;;;;;;5134991;27;20103;-42
2023/11/20 04:46:51;;;;;;;10.52;2.30;;;12.00;99.90;;;;;;5134829;27;20059;-44
2023/11/20 04:49:16;;;;;;;12.00;3.35;;;12.00;99.90;;;;;;5134930;27;20104;-47
2023/11/20 04:51:42;;;;;;;10.27;2.70;;;11.90;99.90;;;;;;5135079;27;20472;-44
2023/11/20 04:54:08;;;;;;;10.50;3.40;;;12.20;99.90;;;;;;5134940;27;20035;-44
2023/11/20 04:56:34;;;;;;;6.70;3.22;;;12.10;99.90;;;;;;5134967;27;20092;-46
2023/11/20 04:59:00;;;;;;;6.72;2.42;;;12.10;99.90;;;;;;5135158;27;20027;-48
2023/11/20 05:01:26;;;;;;;6.00;2.03;;;12.00;99.90;;;;;;5134762;27;20122;-45
2023/11/20 05:03:52;;;;;;;3.85;1.90;;;12.10;99.90;;;;;;5134965;27;20114;-43
2023/11/20 05:06:18;;;;;;;5.05;1.90;;;11.90;99.90;;;;;;5116455;27;20038;-46
2023/11/20 05:08:44;;;;;;;7.72;1.83;;;12.10;99.90;;;;;;5116180;27;20373;-48
2023/11/20 05:11:09;;;;;;;5.60;1.70;;;11.90;99.90;;;;;;5134109;27;20045;-44
2023/11/20 05:13:35;;;;;;;4.30;1.52;;;11.80;99.90;;;;;;5134622;27;20035;-44
2023/11/20 05:16:01;;;;;;;4.65;1.73;;;11.80;99.90;;;;;;5134491;27;20042;-51
2023/11/20 05:18:27;;;;;;;3.88;1.63;;;11.90;99.90;;;;;;5133975;27;20425;-47
2023/11/20 05:20:53;;;;;;;3.47;1.55;;;11.90;99.90;;;;;;5134502;27;20118;-46
2023/11/20 05:23:19;;;;;;;3.72;1.58;;;12.00;99.90;;;;;;5134675;27;20105;-45
2023/11/20 05:25:45;;;;;;;5.45;1.73;;;11.90;99.90;;;;;;5134410;27;20182;-45
2023/11/20 05:28:11;;;;;;;4.07;1.95;;;11.90;99.90;;;;;;5134905;27;20050;-47
2023/11/20 05:30:38;;;;;;;3.63;2.20;;;11.80;99.90;;;;;;5134004;27;20489;-45
2023/11/20 05:33:04;;;;;;;3.75;2.22;;;11.90;99.90;;;;;;5134624;27;20042;-46
2023/11/20 05:35:30;;;;;;;8.05;2.25;;;11.90;99.90;;;;;;5134290;27;20043;-45
2023/11/20 05:37:55;;;;;;;3.80;2.00;;;11.90;99.90;;;;;;5134556;27;20035;-45
2023/11/20 05:40:21;;;;;;;3.17;1.70;;;11.90;99.90;;;;;;5134066;27;20180;-46
2023/11/20 05:42:47;;;;;;;1.33;1.23;;;11.90;99.90;;;;;;5132710;27;20496;-45
2023/11/20 05:45:13;;;;;;;3.88;1.30;;;11.80;99.90;;;;;;5134463;27;20465;-45
2023/11/20 05:47:38;;;;;;;1.20;1.00;;;11.90;99.90;;;;;;5121271;27;20572;-48
2023/11/20 05:50:05;;;;;;;1.48;0.98;;;11.90;99.90;;;;;;5134363;27;20066;-45
2023/11/20 05:52:32;;;;;;;3.15;0.63;;;11.90;99.90;;;;;;5133693;27;20035;-43
2023/11/20 05:54:58;;;;;;;1.75;0.80;;;11.70;99.90;;;;;;5133842;27;20565;-50
2023/11/20 05:57:23;;;;;;;4.15;0.82;;;11.90;99.90;;;;;;5133772;27;20070;-44
2023/11/20 05:59:49;;;;;;;2.28;0.98;;;11.70;99.90;;;;;;5128349;27;20051;-44
2023/11/20 06:02:15;;;;;;;1.83;0.95;;;11.70;99.90;;;;;;5115467;27;20035;-44
2023/11/20 06:04:41;;;;;;;2.63;0.90;;;11.70;99.90;;;;;;5133264;27;20478;-48
2023/11/20 06:07:07;;;;;;;5.97;1.05;;;11.70;99.90;;;;;;5115207;27;20117;-45
2023/11/20 06:09:33;;;;;;;2.95;1.33;;;11.70;99.90;;;;;;5133399;27;20197;-45
2023/11/20 06:11:58;;;;;;;3.45;0.90;;;11.80;99.90;;;;;;5092459;28;20093;-47
2023/11/20 06:14:24;;;;;;;1.90;1.10;;;11.60;99.90;;;;;;5110128;28;20470;-47
2023/11/20 06:16:50;;;;;;;2.53;1.13;;;11.70;99.90;;;;;;5104733;28;20036;-47
2023/11/20 06:19:16;;;;;;;2.38;1.00;;;11.80;99.90;;;;;;5092518;28;20044;-44
2023/11/20 06:21:51;;;;;;;2.15;1.30;;;11.60;99.90;;;;;;5113377;28;20122;-48
2023/11/20 06:24:19;;;;;;;2.97;1.25;;;11.80;99.90;;;;;;5112827;28;20047;-46
2023/11/20 06:26:44;;;;;;;3.45;1.10;;;11.80;99.90;;;;;;5112599;28;20039;-45
2023/11/20 06:29:11;;;;;;;3.00;1.10;;;11.80;99.90;;;;;;5112301;28;20093;-44
2023/11/20 06:31:37;;;;;;;3.13;1.00;;;11.80;99.90;;;;;;5112389;28;20498;-43
2023/11/20 06:34:03;;;;;;;2.92;0.95;;;11.70;99.90;;;;;;5094212;28;20070;-45
2023/11/20 06:36:29;;;;;;;1.80;1.20;;;11.80;99.90;;;;;;5112457;28;20035;-44
2023/11/20 06:38:55;;;;;;;4.32;1.17;;;11.70;99.90;;;;;;5112580;28;20036;-43
2023/11/20 06:41:22;;;;;;;3.22;1.17;;;11.60;99.90;;;;;;5112698;28;20050;-44
2023/11/20 06:43:48;;;;;;;2.28;0.90;;;11.70;99.90;;;;;;5112695;28;20440;-46
2023/11/20 06:46:23;;;;;;;2.83;1.23;;;11.70;99.90;;;;;;5112510;28;20826;-44
2023/11/20 06:48:49;;;;;;;2.22;1.10;;;11.60;99.90;;;;;;5112395;28;20027;-47
2023/11/20 06:51:16;;;;;;;1.65;0.90;;;11.60;99.90;;;;;;5112544;28;20054;-43
2023/11/20 06:53:43;;;;;;;2.53;0.90;;;11.70;99.90;;;;;;5094117;28;20032;-44
2023/11/20 06:56:18;;;;;;;5.18;1.20;;;11.60;99.90;;;;;;5112298;28;20122;-43
2023/11/20 06:58:45;;;;;;;3.28;1.00;;;11.50;99.90;;;;;;5111973;28;20036;-47
2023/11/20 07:01:11;;;;;;;5.35;1.20;;;11.60;99.90;;;;;;5094055;28;20130;-45
2023/11/20 07:03:39;;;;;;;3.25;1.27;;;11.50;99.90;;;;;;5111912;28;20043;-45
2023/11/20 07:06:05;;;;;;;2.35;0.65;;;11.50;99.90;;;;;;5108833;28;20040;-43
2023/11/20 07:08:31;;;;;;;3.60;0.90;;;11.60;99.90;;;;;;5093729;28;20554;-43
2023/11/20 07:10:59;;;;;;;1.67;0.80;;;11.60;99.90;;;;;;5108934;28;20052;-47
2023/11/20 07:13:25;;;;;;;2.38;1.60;;;11.60;99.90;;;;;;5100859;28;20031;-44
2023/11/20 07:15:50;;;;;;;3.55;1.25;;;11.60;99.90;;;;;;5129692;28;20038;-44
2023/11/20 07:18:16;;;;;;;3.08;0.77;;;11.60;99.90;;;;;;5132752;28;20035;-44
2023/11/20 07:20:43;;;;;;;3.97;1.10;;;11.60;99.90;;;;;;5114153;28;20046;-43
2023/11/20 07:23:09;;;;;;;1.30;0.80;;;11.40;99.90;;;;;;5132574;28;20420;-43
2023/11/20 07:25:35;;;;;;;2.40;0.80;;;11.40;99.90;;;;;;5132383;28;20039;-46
2023/11/20 07:28:01;;;;;;;3.10;1.00;;;11.60;99.90;;;;;;5132261;28;20046;-43
2023/11/20 07:30:28;;;;;;;3.15;1.10;;;11.40;99.90;;;;;;5120610;28;20064;-44
2023/11/20 07:32:55;;;;;;;2.28;0.82;;;11.60;99.90;;;;;;5124665;28;20115;-48
2023/11/20 07:35:21;;;;;;;1.30;0.82;;;11.50;99.90;;;;;;5132491;28;20115;-43
2023/11/20 07:37:46;;;;;;;1.02;0.75;;;11.60;99.90;;;;;;5132265;28;20106;-44
2023/11/20 07:40:12;;;;;;;1.42;0.80;;;11.60;99.90;;;;;;5133758;27;20121;-43
2023/11/20 07:42:39;;;;;;;2.00;0.93;;;11.60;99.90;;;;;;5136611;27;20050;-44
2023/11/20 07:45:06;;;;;;;2.15;1.15;;;11.40;99.90;;;;;;5136707;27;20062;-44
2023/11/20 07:47:32;;;;;;;2.67;1.00;;;11.50;99.90;;;;;;5136049;27;20454;-43
2023/11/20 07:49:57;;;;;;;4.13;0.90;;;11.50;99.90;;;;;;5136309;27;20042;-45
2023/11/20 07:52:23;;;;;;;2.08;1.10;;;11.40;99.90;;;;;;5136650;27;20484;-44
2023/11/20 07:54:49;;;;;;;2.75;0.90;;;11.30;99.90;;;;;;5136261;27;20043;-49
2023/11/20 07:57:16;;;;;;;4.50;1.10;;;11.40;99.90;;;;;;5136121;27;20035;-44
2023/11/20 07:59:42;;;;;;;4.25;1.20;;;11.40;99.90;;;;;;5113060;27;20478;-45
2023/11/20 08:02:08;;;;;;;5.40;0.95;;;11.40;99.90;;;;;;5136123;27;20104;-43
2023/11/20 08:04:37;;;;;;;2.95;1.20;;;11.30;99.90;;;;;;5136270;27;20038;-48
2023/11/20 08:07:03;;;;;;;6.13;1.42;;;11.40;99.90;;;;;;5135875;27;20077;-51
2023/11/20 08:09:29;;;;;;;3.30;0.93;;;11.30;99.90;;;;;;5135952;27;20050;-45
2023/11/20 08:11:54;;;;;;;6.20;1.48;;;11.20;99.90;;;;;;5113910;27;20107;-45
2023/11/20 08:14:20;;;;;;;5.30;1.50;;;11.40;99.90;;;;;;5111904;28;20039;-47
2023/11/20 08:16:49;;;;;;;5.90;1.98;;;11.30;99.90;;;;;;5094001;28;20089;-57
2023/11/20 08:19:15;;;;;;;8.32;2.00;;;11.20;99.90;;;;;;5110168;28;20105;-44
2023/11/20 08:21:41;;;;;;;12.75;2.13;;;11.30;99.90;;;;;;5115223;28;20039;-44
2023/11/20 08:24:07;;;;;;;10.68;2.45;;;11.30;99.90;;;;;;5115099;28;20097;-46
2023/11/20 08:26:34;;;;;;;9.10;2.55;;;11.30;99.90;;;;;;5115015;28;20050;-43
2023/11/20 08:28:59;;;;;;;13.73;2.90;;;11.30;99.90;;;;;;5116157;27;20039;-43
2023/11/20 08:31:25;;;;;;;13.93;3.72;;;11.40;99.90;;;;;;5093803;27;20557;-44
2023/11/20 08:33:51;;;;;;;13.77;3.03;;;11.40;99.90;;;;;;5135551;27;20053;-46
2023/11/20 08:36:17;;;;;;;13.93;3.28;;;11.30;99.90;;;;;;5135458;27;20039;-45
2023/11/20 08:38:43;;;;;;;15.43;3.50;;;11.40;99.90;;;;;;5135213;27;20065;-47
2023/11/20 08:41:08;;;;;;;16.98;3.25;;;11.40;99.90;;;;;;5135123;27;20107;-46
2023/11/20 08:43:35;;;;;;;18.70;3.33;;;11.40;99.90;;;;;;5135336;27;20031;-45
2023/11/20 08:46:00;;;;;;;13.63;3.25;;;11.30;99.90;;;;;;5135120;27;20105;-46
2023/11/20 08:48:26;;;;;;;18.15;3.42;;;11.40;99.90;;;;;;5135000;27;20401;-43
2023/11/20 08:50:52;;;;;;;13.90;3.60;;;11.30;99.90;;;;;;5134763;27;20035;-43
2023/11/20 08:53:17;;;;;;;19.40;3.40;;;11.50;99.90;;;;;;5099246;27;20035;-44
2023/11/20 08:55:43;;;;;;;14.07;3.28;;;11.40;99.90;;;;;;5135249;27;20568;-47
2023/11/20 08:58:09;;;;;;;18.88;3.30;;;11.40;99.90;;;;;;5135047;27;20039;-43
2023/11/20 09:00:35;;;;;;;20.75;3.95;;;11.40;99.90;;;;;;5132027;27;20035;-44
2023/11/20 09:03:01;;;;;;;21.77;3.72;;;11.50;99.90;;;;;;5135289;27;20039;-44
2023/11/20 09:05:27;;;;;;;32.13;4.50;;;11.50;99.90;;;;;;5134670;27;20046;-46
2023/11/20 09:07:54;;;;;;;22.15;4.55;;;11.40;99.90;;;;;;5134771;27;20389;-45
2023/11/20 09:10:23;;;;;;;21.10;3.70;;;11.40;99.90;;;;;;5134770;27;20138;-44
2023/11/20 09:12:50;;;;;;;22.10;3.63;;;11.40;99.90;;;;;;5101857;27;20047;-44
2023/11/20 09:15:16;;;;;;;32.95;4.60;;;11.40;99.90;;;;;;5114127;28;20071;-44
2023/11/20 09:17:42;;;;;;;20.75;3.58;;;11.40;99.90;;;;;;5114177;28;20052;-45
2023/11/20 09:20:14;;;;;;;15.07;3.58;;;11.40;99.90;;;;;;5114114;28;20073;-45
2023/11/20 09:22:40;;;;;;;31.23;5.93;;;11.50;99.90;;;;;;5113964;28;20044;-43
2023/11/20 09:25:07;;;;;;;34.63;4.82;;;11.40;99.90;;;;;;5114026;28;20050;-47
2023/11/20 09:27:33;;;;;;;19.83;3.70;;;11.40;99.90;;;;;;5114153;28;20078;-45
2023/11/20 09:29:59;;;;;;;23.40;3.97;;;11.60;99.90;;;;;;5113597;28;20141;-48
2023/11/20 09:32:27;;;;;;;17.45;3.20;;;11.40;99.90;;;;;;5113629;28;20085;-44
2023/11/20 09:34:52;;;;;;;20.00;3.30;;;11.40;99.90;;;;;;5113735;28;20040;-45
2023/11/20 09:37:18;;;;;;;13.15;3.08;;;11.50;99.90;;;;;;5113435;28;20043;-43
2023/11/20 09:39:46;;;;;;;15.45;3.35;;;11.50;99.90;;;;;;5113718;28;20126;-52
2023/11/20 09:42:14;;;;;;;11.98;2.55;;;11.40;99.90;;;;;;5113536;28;20040;-42
2023/11/20 09:44:43;;;;;;;12.63;2.70;;;11.40;99.90;;;;;;5113750;28;20058;-44
2023/11/20 09:47:12;;;;;;;;;;;11.40;99.90;;;;;;5113666;28;20055;-44
2023/11/20 09:49:42;;;;;;;18.45;2.60;;;11.40;99.90;;;;;;5113506;28;20455;-42
2023/11/20 09:52:09;;;;;;;15.68;2.92;;;11.40;99.90;;;;;;5113252;28;20036;-44
2023/11/20 09:54:41;;;;;;;16.15;3.13;;;11.40;99.90;;;;;;5113410;28;20115;-44
2023/11/20 09:57:09;;;;;;;15.93;3.47;;;11.40;99.90;;;;;;5113079;28;20035;-43
2023/11/20 09:59:36;;;;;;;17.25;4.25;;;11.40;99.90;;;;;;5113084;28;20036;-44
2023/11/20 10:02:02;;;;;;;15.95;3.42;;;11.40;99.90;;;;;;5112861;28;20499;-47
2023/11/20 10:04:31;;;;;;;16.10;3.25;;;11.40;99.90;;;;;;5112781;28;20035;-45
2023/11/20 10:07:02;;;;;;;17.52;3.67;;;11.50;99.90;;;;;;5113334;28;20031;-47
2023/11/20 10:09:30;;;;;;;16.02;3.40;;;11.50;99.90;;;;;;5095022;28;20118;-44
2023/11/20 10:11:58;;;;;;;19.58;4.00;;;11.50;99.90;;;;;;5083950;28;20044;-45
2023/11/20 10:14:24;;;;;;;22.38;3.40;;;11.50;99.90;;;;;;5110161;28;20046;-44
2023/11/20 10:16:53;;;;;;;21.60;3.42;;;11.50;99.90;;;;;;5112919;28;20465;-44
2023/11/20 10:19:19;;;;;;;;;;;11.50;99.90;;;;;;5094988;28;20047;-50
2023/11/20 10:21:47;;;;;;;30.00;4.63;;;11.40;99.90;;;;;;5113039;28;19915;-48
2023/11/20 10:24:16;;;;;;;22.90;4.38;;;11.50;99.90;;;;;;5112835;28;20070;-44
2023/11/20 10:26:48;;;;;;;19.00;4.35;;;11.50;99.90;;;;;;5094880;28;20044;-43
2023/11/20 10:29:15;;;;;;;29.02;4.55;;;11.50;99.90;;;;;;5112632;28;20075;-45
2023/11/20 10:31:46;;;;;;;27.95;4.07;;;11.50;99.90;;;;;;5094723;28;20058;-44
2023/11/20 10:34:13;;;;;;;21.80;4.28;;;11.40;99.90;;;;;;5112959;28;20043;-43
2023/11/20 10:36:40;;;;;;;20.20;4.18;;;11.50;99.90;;;;;;5112318;28;20034;-42
2023/11/20 10:39:08;;;;;;;24.70;4.40;;;11.50;99.90;;;;;;5112762;28;20114;-44
2023/11/20 10:41:40;;;;;;;31.93;4.77;;;11.50;99.90;;;;;;5112291;28;20046;-48
2023/11/20 10:44:05;;;;;;;31.00;4.85;;;11.40;99.90;;;;;;5112372;28;20509;-47
2023/11/20 10:46:32;;;;;;;21.90;4.10;;;11.50;99.90;;;;;;5112295;28;20118;-49
2023/11/20 10:49:06;;;;;;;22.80;4.00;;;11.50;99.90;;;;;;5112681;28;20039;-45
2023/11/20 10:51:34;;;;;;;27.92;4.70;;;11.60;99.90;;;;;;5112233;28;20054;-44
2023/11/20 10:54:04;;;;;;;18.67;3.97;;;11.60;99.90;;;;;;5112305;28;20094;-44
2023/11/20 10:56:34;;;;;;;28.48;5.55;;;11.50;99.90;;;;;;5094628;28;20040;-43
2023/11/20 10:59:00;;;;;;;;;;;11.60;99.90;;;;;;5113124;28;20039;-44
2023/11/20 11:01:28;;;;;;;27.25;4.45;;;11.60;99.90;;;;;;5112341;28;20325;-43
2023/11/20 11:03:59;;;;;;;20.95;3.92;;;11.60;99.90;;;;;;5112077;28;20047;-43
2023/11/20 11:06:26;;;;;;;23.88;3.85;;;11.60;99.90;;;;;;5112466;28;20122;-43
2023/11/20 11:08:56;;;;;;;18.27;4.45;;;11.70;99.90;;;;;;5111772;28;20106;-43
2023/11/20 11:11:22;;;;;;;28.83;4.45;;;11.70;99.90;;;;;;5111805;28;20123;-44
2023/11/20 11:13:50;;;;;;;24.25;4.95;;;11.80;99.90;;;;;;5112251;28;20039;-45
2023/11/20 11:16:27;;;;;;;32.97;5.10;;;11.80;99.90;;;;;;5111392;28;20031;-49
2023/11/20 11:19:02;;;;;;;21.77;4.45;;;11.80;99.90;;;;;;5112084;28;20408;-47
2023/11/20 11:21:39;;;;;;;27.83;4.57;;;11.80;99.90;;;;;;5111696;28;20558;-44
2023/11/20 11:24:09;;;;;;;22.30;4.20;;;11.90;99.90;;;;;;5112125;28;20169;-45
2023/11/20 11:26:55;;;;;;;19.80;4.03;;;11.90;99.90;;;;;;5112188;28;20444;-45
2023/11/20 11:29:34;;;;;;;23.67;4.22;;;11.90;99.90;;;;;;5093701;28;20499;-47
2023/11/20 11:32:06;;;;;;;25.07;4.33;;;12.00;99.90;;;;;;5111565;28;20101;-45
2023/11/20 11:34:53;;;;;;;26.23;5.15;;;12.10;99.90;;;;;;5111958;28;20356;-47
2023/11/20 11:37:57;;;;;;;28.23;4.57;;;12.10;99.90;;;;;;5111922;28;20047;-43
2023/11/20 11:40:51;;;;;;;22.52;4.40;;;12.10;99.90;;;;;;5055225;28;20079;-43
2023/11/20 11:43:27;;;;;;;22.83;3.35;;;12.20;99.90;;;;;;5103224;28;20042;-43
2023/11/20 11:45:56;;;;;;;26.17;4.68;;;12.20;99.90;;;;;;5132080;28;20052;-44
2023/11/20 11:48:24;;;;;;;20.27;3.75;;;12.20;99.90;;;;;;5132012;28;20043;-45
2023/11/20 11:50:50;;;;;;;21.20;4.03;;;12.20;99.90;;;;;;5096759;28;20096;-45
2023/11/20 11:53:15;;;;;;;22.13;4.15;;;12.20;99.90;;;;;;5132414;28;20035;-45
2023/11/20 11:55:43;;;;;;;24.27;4.15;;;12.20;99.90;;;;;;5132232;28;20035;-44
2023/11/20 11:58:15;;;;;;;21.50;3.80;;;12.20;99.90;;;;;;5132029;28;20039;-44
2023/11/20 12:00:41;;;;;;;17.63;3.97;;;12.20;99.90;;;;;;5130750;28;20039;-44
2023/11/20 12:03:11;;;;;;;21.30;3.47;;;12.30;99.90;;;;;;5132022;28;20042;-49
2023/11/20 12:05:55;;;;;;;24.27;3.42;;;12.20;99.90;;;;;;5131273;28;20042;-45
2023/11/20 12:08:22;;;;;;;31.60;4.43;;;12.30;99.90;;;;;;5132091;28;20416;-46
2023/11/20 12:10:53;;;;;;;23.17;3.60;;;12.40;99.90;;;;;;5128405;28;20100;-47
2023/11/20 12:13:20;;;;;;;19.90;3.45;;;12.50;99.90;;;;;;5099547;28;20059;-48
2023/11/20 12:15:50;;;;;;;21.73;3.55;;;12.60;99.90;;;;;;5111606;28;20107;-47
2023/11/20 12:18:24;;;;;;;25.23;3.78;;;12.70;99.90;;;;;;5093597;28;20070;-44
2023/11/20 12:20:51;;;;;;;28.17;3.92;;;12.60;99.90;;;;;;5111681;28;20040;-45
2023/11/20 12:23:24;;;;;;;20.90;4.00;;;12.70;99.90;;;;;;5093505;28;20779;-43
2023/11/20 12:25:53;;;;;;;19.42;3.75;;;12.60;99.90;;;;;;5112052;28;20040;-45
2023/11/20 12:28:20;;;;;;;18.52;3.78;;;12.60;99.90;;;;;;5114830;28;20035;-44
2023/11/20 12:30:46;;;;;;;15.80;3.17;;;12.60;99.90;;;;;;5099905;27;20091;-43
2023/11/20 12:33:12;;;;;;;17.13;3.75;;;12.50;99.90;;;;;;5116896;27;20036;-43
2023/11/20 12:35:39;;;;;;;19.60;3.25;;;12.40;99.90;;;;;;5114858;28;20031;-43
2023/11/20 12:38:09;;;;;;;17.77;3.17;;;12.40;99.90;;;;;;5114664;28;20043;-45
2023/11/20 12:40:36;;;;;;;16.02;3.47;;;12.30;99.90;;;;;;5114678;28;20031;-44
2023/11/20 12:43:01;;;;;;;21.67;3.28;;;12.30;99.90;;;;;;5114845;28;20043;-44